sensor_id;sensor_type;location;lat;lon;timestamp;noise_LAeq;noise_LA_min;noise_LA_max;noise_LA01;noise_LA95
40465;Laerm;30489;48.982;8.394;2023-03-01T00:01:58;41.53;40.13;42.59;;
40465;Laerm;30489;48.982;8.394;2023-03-01T00:04:09;41.52;40.33;42.65;;
40465;Laerm;30489;48.982;8.394;2023-03-01T00:06:19;41.52;40.23;42.53;;
40465;Laerm;30489;48.982;8.394;2023-03-01T00:08:30;41.50;40.23;42.65;;
40465;Laerm;30489;48.982;8.394;2023-03-01T00:10:41;41.49;39.92;42.53;;
40465;Laerm;30489;48.982;8.394;2023-03-01T00:12:51;41.49;40.03;42.65;;
40465;Laerm;30489;48.982;8.394;2023-03-01T00:15:02;41.47;40.13;42.59;;
40465;Laerm;30489;48.982;8.394;2023-03-01T00:17:14;41.47;40.23;42.76;;
40465;Laerm;30489;48.982;8.394;2023-03-01T00:19:25;41.48;40.13;42.71;;
40465;Laerm;30489;48.982;8.394;2023-03-01T00:21:35;41.48;40.13;42.53;;
40465;Laerm;30489;48.982;8.394;2023-03-01T00:23:45;41.47;40.33;42.59;;
40465;Laerm;30489;48.982;8.394;2023-03-01T00:25:55;41.46;40.13;42.59;;
40465;Laerm;30489;48.982;8.394;2023-03-01T00:28:06;41.44;39.92;42.53;;
40465;Laerm;30489;48.982;8.394;2023-03-01T00:30:16;41.45;40.23;42.53;;
40465;Laerm;30489;48.982;8.394;2023-03-01T00:32:26;41.44;40.23;42.65;;
40465;Laerm;30489;48.982;8.394;2023-03-01T00:34:37;41.43;40.13;42.42;;
40465;Laerm;30489;48.982;8.394;2023-03-01T00:36:47;41.43;40.03;42.47;;
40465;Laerm;30489;48.982;8.394;2023-03-01T00:38:57;41.42;40.13;42.53;;
40465;Laerm;30489;48.982;8.394;2023-03-01T00:41:08;41.44;39.58;42.53;;
40465;Laerm;30489;48.982;8.394;2023-03-01T00:43:19;41.41;40.23;42.47;;
40465;Laerm;30489;48.982;8.394;2023-03-01T00:45:30;41.40;40.03;42.41;;
40465;Laerm;30489;48.982;8.394;2023-03-01T00:47:41;41.42;40.08;42.47;;
40465;Laerm;30489;48.982;8.394;2023-03-01T00:49:51;41.40;39.92;42.53;;
40465;Laerm;30489;48.982;8.394;2023-03-01T00:52:01;41.40;40.23;42.59;;
40465;Laerm;30489;48.982;8.394;2023-03-01T00:54:12;41.37;40.13;42.47;;
40465;Laerm;30489;48.982;8.394;2023-03-01T00:56:22;41.39;40.03;42.65;;
40465;Laerm;30489;48.982;8.394;2023-03-01T00:58:33;41.37;39.92;42.65;;
40465;Laerm;30489;48.982;8.394;2023-03-01T01:00:44;41.36;40.23;42.53;;
40465;Laerm;30489;48.982;8.394;2023-03-01T01:02:54;41.34;39.92;42.41;;
40465;Laerm;30489;48.982;8.394;2023-03-01T01:05:04;41.35;40.03;42.47;;
40465;Laerm;30489;48.982;8.394;2023-03-01T01:07:15;41.34;40.13;42.47;;
40465;Laerm;30489;48.982;8.394;2023-03-01T01:09:25;41.33;40.03;42.47;;
40465;Laerm;30489;48.982;8.394;2023-03-01T01:11:35;41.31;40.03;42.41;;
40465;Laerm;30489;48.982;8.394;2023-03-01T01:13:48;41.30;40.23;42.35;;
40465;Laerm;30489;48.982;8.394;2023-03-01T01:16:02;41.30;40.03;42.53;;
40465;Laerm;30489;48.982;8.394;2023-03-01T01:18:12;41.29;39.81;42.35;;
40465;Laerm;30489;48.982;8.394;2023-03-01T01:20:22;41.28;39.81;42.47;;
40465;Laerm;30489;48.982;8.394;2023-03-01T01:22:32;41.26;39.92;42.76;;
40465;Laerm;30489;48.982;8.394;2023-03-01T01:24:43;41.26;40.03;42.35;;
40465;Laerm;30489;48.982;8.394;2023-03-01T01:26:53;41.26;40.03;42.41;;
40465;Laerm;30489;48.982;8.394;2023-03-01T01:29:03;41.25;39.92;42.29;;
40465;Laerm;30489;48.982;8.394;2023-03-01T01:31:14;41.24;39.81;42.47;;
40465;Laerm;30489;48.982;8.394;2023-03-01T01:33:25;41.24;39.92;42.47;;
40465;Laerm;30489;48.982;8.394;2023-03-01T01:35:35;41.23;39.92;42.59;;
40465;Laerm;30489;48.982;8.394;2023-03-01T01:37:45;41.22;39.81;42.35;;
40465;Laerm;30489;48.982;8.394;2023-03-01T01:39:56;41.22;39.81;42.47;;
40465;Laerm;30489;48.982;8.394;2023-03-01T01:42:08;41.22;39.92;42.22;;
40465;Laerm;30489;48.982;8.394;2023-03-01T01:44:23;41.20;39.70;42.41;;
40465;Laerm;30489;48.982;8.394;2023-03-01T01:46:35;41.19;39.89;42.35;;
40465;Laerm;30489;48.982;8.394;2023-03-01T01:48:52;41.17;39.81;42.35;;
40465;Laerm;30489;48.982;8.394;2023-03-01T01:51:04;41.18;39.81;42.41;;
40465;Laerm;30489;48.982;8.394;2023-03-01T01:53:15;41.16;39.70;42.29;;
40465;Laerm;30489;48.982;8.394;2023-03-01T01:55:27;41.16;39.92;42.22;;
40465;Laerm;30489;48.982;8.394;2023-03-01T01:57:42;41.14;39.81;42.47;;
40465;Laerm;30489;48.982;8.394;2023-03-01T01:59:54;41.13;39.58;42.22;;
40465;Laerm;30489;48.982;8.394;2023-03-01T02:02:06;41.11;39.81;42.16;;
40465;Laerm;30489;48.982;8.394;2023-03-01T02:04:16;41.10;39.81;42.35;;
40465;Laerm;30489;48.982;8.394;2023-03-01T02:06:41;41.09;39.81;42.09;;
40465;Laerm;30489;48.982;8.394;2023-03-01T02:08:51;41.09;39.81;42.16;;
40465;Laerm;30489;48.982;8.394;2023-03-01T02:11:02;41.06;39.46;42.22;;
40465;Laerm;30489;48.982;8.394;2023-03-01T02:13:16;41.06;39.58;42.35;;
40465;Laerm;30489;48.982;8.394;2023-03-01T02:23:50;41.04;39.78;42.16;;
40465;Laerm;30489;48.982;8.394;2023-03-01T02:26:01;41.04;39.58;42.29;;
40465;Laerm;30489;48.982;8.394;2023-03-01T02:30:27;41.04;39.58;42.16;;
40465;Laerm;30489;48.982;8.394;2023-03-01T02:32:39;41.03;39.58;42.35;;
40465;Laerm;30489;48.982;8.394;2023-03-01T02:34:54;41.03;39.70;42.09;;
40465;Laerm;30489;48.982;8.394;2023-03-01T02:37:08;41.02;39.70;42.22;;
40465;Laerm;30489;48.982;8.394;2023-03-01T02:39:30;41.03;39.46;42.16;;
40465;Laerm;30489;48.982;8.394;2023-03-01T02:41:43;41.00;39.70;42.16;;
40465;Laerm;30489;48.982;8.394;2023-03-01T02:43:54;40.99;39.46;42.16;;
40465;Laerm;30489;48.982;8.394;2023-03-01T02:46:14;40.99;39.70;42.16;;
40465;Laerm;30489;48.982;8.394;2023-03-01T02:48:25;40.98;39.35;42.22;;
40465;Laerm;30489;48.982;8.394;2023-03-01T02:53:08;40.97;39.34;42.16;;
40465;Laerm;30489;48.982;8.394;2023-03-01T02:55:22;40.97;39.46;42.16;;
40465;Laerm;30489;48.982;8.394;2023-03-01T02:57:33;40.95;39.58;42.03;;
40465;Laerm;30489;48.982;8.394;2023-03-01T02:59:44;40.95;39.21;42.16;;
40465;Laerm;30489;48.982;8.394;2023-03-01T03:01:54;40.96;39.58;42.16;;
40465;Laerm;30489;48.982;8.394;2023-03-01T03:04:05;40.94;39.70;42.22;;
40465;Laerm;30489;48.982;8.394;2023-03-01T03:06:16;40.95;39.34;42.09;;
40465;Laerm;30489;48.982;8.394;2023-03-01T03:08:26;40.93;39.70;42.41;;
40465;Laerm;30489;48.982;8.394;2023-03-01T03:10:38;40.92;39.46;42.16;;
40465;Laerm;30489;48.982;8.394;2023-03-01T03:12:53;40.92;39.58;42.22;;
40465;Laerm;30489;48.982;8.394;2023-03-01T03:29:03;40.85;39.34;42.29;;
40465;Laerm;30489;48.982;8.394;2023-03-01T03:31:13;40.84;39.46;42.29;;
40465;Laerm;30489;48.982;8.394;2023-03-01T03:33:24;40.83;39.58;42.09;;
40465;Laerm;30489;48.982;8.394;2023-03-01T03:35:38;40.81;39.34;42.09;;
40465;Laerm;30489;48.982;8.394;2023-03-01T03:37:48;40.80;39.21;42.16;;
40465;Laerm;30489;48.982;8.394;2023-03-01T03:40:15;40.79;39.34;42.03;;
40465;Laerm;30489;48.982;8.394;2023-03-01T03:42:25;40.79;39.34;42.00;;
40465;Laerm;30489;48.982;8.394;2023-03-01T03:44:36;40.79;39.21;42.22;;
40465;Laerm;30489;48.982;8.394;2023-03-01T03:46:47;40.79;38.95;41.89;;
40465;Laerm;30489;48.982;8.394;2023-03-01T03:48:57;40.77;39.21;41.96;;
40465;Laerm;30489;48.982;8.394;2023-03-01T03:51:09;40.77;39.34;42.03;;
40465;Laerm;30489;48.982;8.394;2023-03-01T03:53:21;40.77;39.34;42.09;;
40465;Laerm;30489;48.982;8.394;2023-03-01T03:58:22;40.75;39.46;41.96;;
40465;Laerm;30489;48.982;8.394;2023-03-01T04:00:40;40.73;39.21;41.89;;
40465;Laerm;30489;48.982;8.394;2023-03-01T04:02:51;40.73;39.08;41.96;;
40465;Laerm;30489;48.982;8.394;2023-03-01T04:05:01;40.73;39.08;41.96;;
40465;Laerm;30489;48.982;8.394;2023-03-01T04:07:11;40.73;39.21;41.96;;
40465;Laerm;30489;48.982;8.394;2023-03-01T04:09:21;40.72;39.21;42.03;;
40465;Laerm;30489;48.982;8.394;2023-03-01T04:11:32;40.71;39.21;41.96;;
40465;Laerm;30489;48.982;8.394;2023-03-01T04:13:44;40.70;39.21;42.03;;
40465;Laerm;30489;48.982;8.394;2023-03-01T04:15:54;40.69;39.08;41.89;;
40465;Laerm;30489;48.982;8.394;2023-03-01T04:18:05;40.69;39.21;41.89;;
40465;Laerm;30489;48.982;8.394;2023-03-01T04:20:17;40.68;39.34;42.03;;
40465;Laerm;30489;48.982;8.394;2023-03-01T04:22:28;40.66;39.21;42.03;;
40465;Laerm;30489;48.982;8.394;2023-03-01T04:24:39;40.67;39.21;42.09;;
40465;Laerm;30489;48.982;8.394;2023-03-01T04:26:49;40.64;39.08;41.96;;
40465;Laerm;30489;48.982;8.394;2023-03-01T04:28:59;40.64;39.08;41.89;;
40465;Laerm;30489;48.982;8.394;2023-03-01T04:31:13;40.63;39.21;41.81;;
40465;Laerm;30489;48.982;8.394;2023-03-01T04:33:23;40.63;38.95;41.89;;
40465;Laerm;30489;48.982;8.394;2023-03-01T04:35:34;40.61;39.08;41.89;;
40465;Laerm;30489;48.982;8.394;2023-03-01T04:37:45;40.61;39.08;41.89;;
40465;Laerm;30489;48.982;8.394;2023-03-01T04:39:55;40.62;39.21;41.89;;
40465;Laerm;30489;48.982;8.394;2023-03-01T04:42:05;40.60;38.95;41.82;;
40465;Laerm;30489;48.982;8.394;2023-03-01T04:44:15;40.60;39.08;41.75;;
40465;Laerm;30489;48.982;8.394;2023-03-01T04:46:26;40.59;38.95;41.82;;
40465;Laerm;30489;48.982;8.394;2023-03-01T04:48:36;40.58;39.21;41.82;;
40465;Laerm;30489;48.982;8.394;2023-03-01T04:50:47;40.59;38.67;42.29;;
40465;Laerm;30489;48.982;8.394;2023-03-01T04:52:57;40.58;39.08;41.96;;
40465;Laerm;30489;48.982;8.394;2023-03-01T04:55:08;40.58;38.95;41.89;;
40465;Laerm;30489;48.982;8.394;2023-03-01T04:57:19;40.58;39.08;41.89;;
40465;Laerm;30489;48.982;8.394;2023-03-01T04:59:29;40.58;39.21;41.75;;
40465;Laerm;30489;48.982;8.394;2023-03-01T05:01:40;40.56;39.21;41.96;;
40465;Laerm;30489;48.982;8.394;2023-03-01T05:03:52;40.57;38.95;41.82;;
40465;Laerm;30489;48.982;8.394;2023-03-01T05:06:03;40.57;38.67;41.96;;
40465;Laerm;30489;48.982;8.394;2023-03-01T05:08:13;40.56;38.95;41.89;;
40465;Laerm;30489;48.982;8.394;2023-03-01T05:10:28;40.53;38.67;41.68;;
40465;Laerm;30489;48.982;8.394;2023-03-01T05:12:39;40.53;38.95;41.82;;
40465;Laerm;30489;48.982;8.394;2023-03-01T05:14:49;40.52;39.21;41.89;;
40465;Laerm;30489;48.982;8.394;2023-03-01T05:17:01;40.54;39.21;42.16;;
40465;Laerm;30489;48.982;8.394;2023-03-01T05:19:13;40.52;38.95;41.75;;
40465;Laerm;30489;48.982;8.394;2023-03-01T05:21:32;40.52;39.08;41.89;;
40465;Laerm;30489;48.982;8.394;2023-03-01T05:23:44;40.53;38.67;41.96;;
40465;Laerm;30489;48.982;8.394;2023-03-01T05:25:57;40.52;39.08;41.89;;
40465;Laerm;30489;48.982;8.394;2023-03-01T05:28:09;40.51;38.95;41.68;;
40465;Laerm;30489;48.982;8.394;2023-03-01T05:30:21;40.49;38.95;41.82;;
40465;Laerm;30489;48.982;8.394;2023-03-01T05:32:31;40.51;39.21;41.82;;
40465;Laerm;30489;48.982;8.394;2023-03-01T05:34:42;40.50;38.95;41.82;;
40465;Laerm;30489;48.982;8.394;2023-03-01T05:36:52;40.50;38.67;41.68;;
40465;Laerm;30489;48.982;8.394;2023-03-01T05:39:03;40.51;38.95;41.82;;
40465;Laerm;30489;48.982;8.394;2023-03-01T05:41:14;40.50;38.52;42.03;;
40465;Laerm;30489;48.982;8.394;2023-03-01T05:43:25;40.52;38.67;41.75;;
40465;Laerm;30489;48.982;8.394;2023-03-01T05:45:36;40.51;39.08;41.82;;
40465;Laerm;30489;48.982;8.394;2023-03-01T05:47:47;40.52;38.81;41.89;;
40465;Laerm;30489;48.982;8.394;2023-03-01T05:49:57;40.52;39.08;41.82;;
40465;Laerm;30489;48.982;8.394;2023-03-01T05:52:08;40.52;38.95;41.68;;
40465;Laerm;30489;48.982;8.394;2023-03-01T05:54:18;40.53;39.08;41.89;;
40465;Laerm;30489;48.982;8.394;2023-03-01T05:56:29;40.53;38.95;41.75;;
40465;Laerm;30489;48.982;8.394;2023-03-01T05:58:39;40.55;39.21;41.75;;
40465;Laerm;30489;48.982;8.394;2023-03-01T06:00:49;40.55;39.08;42.03;;
40465;Laerm;30489;48.982;8.394;2023-03-01T06:03:00;40.55;38.74;41.82;;
40465;Laerm;30489;48.982;8.394;2023-03-01T06:05:11;40.55;39.08;41.82;;
40465;Laerm;30489;48.982;8.394;2023-03-01T06:07:21;40.55;38.95;41.96;;
40465;Laerm;30489;48.982;8.394;2023-03-01T06:09:32;40.55;39.08;41.89;;
40465;Laerm;30489;48.982;8.394;2023-03-01T06:11:42;40.56;39.08;41.96;;
40465;Laerm;30489;48.982;8.394;2023-03-01T06:13:52;40.56;38.95;41.89;;
40465;Laerm;30489;48.982;8.394;2023-03-01T06:16:06;40.56;39.21;41.68;;
40465;Laerm;30489;48.982;8.394;2023-03-01T06:18:16;40.57;38.95;42.03;;
40465;Laerm;30489;48.982;8.394;2023-03-01T06:20:27;40.55;38.95;41.82;;
40465;Laerm;30489;48.982;8.394;2023-03-01T06:22:38;40.56;39.08;41.96;;
40465;Laerm;30489;48.982;8.394;2023-03-01T06:24:49;40.56;39.08;41.96;;
40465;Laerm;30489;48.982;8.394;2023-03-01T06:26:59;40.57;38.95;41.96;;
40465;Laerm;30489;48.982;8.394;2023-03-01T06:29:10;40.57;39.08;41.82;;
40465;Laerm;30489;48.982;8.394;2023-03-01T06:31:20;40.59;39.34;41.89;;
40465;Laerm;30489;48.982;8.394;2023-03-01T06:33:30;40.59;39.08;41.82;;
40465;Laerm;30489;48.982;8.394;2023-03-01T06:35:40;40.56;38.95;41.96;;
40465;Laerm;30489;48.982;8.394;2023-03-01T06:37:51;40.59;38.81;41.89;;
40465;Laerm;30489;48.982;8.394;2023-03-01T06:40:02;40.60;39.21;41.82;;
40465;Laerm;30489;48.982;8.394;2023-03-01T06:42:18;40.60;39.08;42.03;;
40465;Laerm;30489;48.982;8.394;2023-03-01T06:44:28;40.60;39.21;42.03;;
40465;Laerm;30489;48.982;8.394;2023-03-01T06:46:39;40.62;39.34;41.82;;
40465;Laerm;30489;48.982;8.394;2023-03-01T06:48:49;40.60;38.81;41.89;;
40465;Laerm;30489;48.982;8.394;2023-03-01T06:51:00;40.61;39.08;41.82;;
40465;Laerm;30489;48.982;8.394;2023-03-01T06:53:10;40.62;38.95;41.75;;
40465;Laerm;30489;48.982;8.394;2023-03-01T06:55:22;40.60;39.08;41.75;;
40465;Laerm;30489;48.982;8.394;2023-03-01T06:57:32;40.61;38.81;41.82;;
40465;Laerm;30489;48.982;8.394;2023-03-01T06:59:42;40.61;38.81;41.96;;
40465;Laerm;30489;48.982;8.394;2023-03-01T07:01:53;40.63;39.08;41.82;;
40465;Laerm;30489;48.982;8.394;2023-03-01T07:04:03;40.63;38.81;42.16;;
40465;Laerm;30489;48.982;8.394;2023-03-01T07:06:13;40.63;39.21;41.89;;
40465;Laerm;30489;48.982;8.394;2023-03-01T07:08:24;40.63;39.21;41.82;;
40465;Laerm;30489;48.982;8.394;2023-03-01T07:10:34;40.65;38.95;41.82;;
40465;Laerm;30489;48.982;8.394;2023-03-01T07:12:44;40.65;39.08;41.89;;
40465;Laerm;30489;48.982;8.394;2023-03-01T07:14:56;40.66;39.08;42.09;;
40465;Laerm;30489;48.982;8.394;2023-03-01T07:17:06;40.66;39.08;41.89;;
40465;Laerm;30489;48.982;8.394;2023-03-01T07:19:16;40.67;39.34;41.94;;
40465;Laerm;30489;48.982;8.394;2023-03-01T07:21:27;40.68;39.34;42.09;;
40465;Laerm;30489;48.982;8.394;2023-03-01T07:23:37;40.67;39.21;41.96;;
40465;Laerm;30489;48.982;8.394;2023-03-01T07:25:51;40.67;39.08;42.09;;
40465;Laerm;30489;48.982;8.394;2023-03-01T07:28:04;40.67;39.08;41.96;;
40465;Laerm;30489;48.982;8.394;2023-03-01T07:30:14;40.72;39.21;41.96;;
40465;Laerm;30489;48.982;8.394;2023-03-01T07:32:25;40.72;38.81;42.03;;
40465;Laerm;30489;48.982;8.394;2023-03-01T07:34:35;40.76;39.34;41.96;;
40465;Laerm;30489;48.982;8.394;2023-03-01T07:36:45;40.77;39.46;41.89;;
40465;Laerm;30489;48.982;8.394;2023-03-01T07:38:55;40.77;39.08;42.22;;
40465;Laerm;30489;48.982;8.394;2023-03-01T07:41:06;40.78;39.46;42.29;;
40465;Laerm;30489;48.982;8.394;2023-03-01T07:43:16;40.80;39.08;42.16;;
40465;Laerm;30489;48.982;8.394;2023-03-01T07:45:28;40.82;39.21;42.16;;
40465;Laerm;30489;48.982;8.394;2023-03-01T07:47:39;40.83;39.21;42.03;;
40465;Laerm;30489;48.982;8.394;2023-03-01T07:49:49;40.86;39.21;42.09;;
40465;Laerm;30489;48.982;8.394;2023-03-01T07:52:00;40.87;39.34;42.16;;
40465;Laerm;30489;48.982;8.394;2023-03-01T07:54:10;40.90;39.46;42.09;;
40465;Laerm;30489;48.982;8.394;2023-03-01T07:56:20;40.90;39.58;42.03;;
40465;Laerm;30489;48.982;8.394;2023-03-01T07:58:33;40.90;39.46;42.22;;
40465;Laerm;30489;48.982;8.394;2023-03-01T08:00:44;40.90;39.21;42.03;;
40465;Laerm;30489;48.982;8.394;2023-03-01T08:02:54;40.93;39.58;42.09;;
40465;Laerm;30489;48.982;8.394;2023-03-01T08:05:04;40.96;39.46;42.09;;
40465;Laerm;30489;48.982;8.394;2023-03-01T08:07:14;40.98;39.58;42.16;;
40465;Laerm;30489;48.982;8.394;2023-03-01T08:09:25;40.97;39.58;42.09;;
40465;Laerm;30489;48.982;8.394;2023-03-01T08:11:35;40.98;39.57;42.09;;
40465;Laerm;30489;48.982;8.394;2023-03-01T08:13:46;40.99;39.70;42.24;;
40465;Laerm;30489;48.982;8.394;2023-03-01T08:16:03;41.01;39.34;42.82;;
40465;Laerm;30489;48.982;8.394;2023-03-01T08:18:14;41.03;39.58;42.03;;
40465;Laerm;30489;48.982;8.394;2023-03-01T08:20:24;41.05;39.58;42.41;;
40465;Laerm;30489;48.982;8.394;2023-03-01T08:22:35;41.06;39.58;42.29;;
40465;Laerm;30489;48.982;8.394;2023-03-01T08:24:46;41.08;39.46;42.29;;
40465;Laerm;30489;48.982;8.394;2023-03-01T08:26:56;41.08;39.46;42.22;;
40465;Laerm;30489;48.982;8.394;2023-03-01T08:29:06;41.11;39.70;42.71;;
40465;Laerm;30489;48.982;8.394;2023-03-01T08:31:21;41.10;39.81;42.41;;
40465;Laerm;30489;48.982;8.394;2023-03-01T08:33:32;41.13;39.81;42.35;;
40465;Laerm;30489;48.982;8.394;2023-03-01T08:35:42;41.13;39.70;42.53;;
40465;Laerm;30489;48.982;8.394;2023-03-01T08:37:52;41.14;39.81;42.29;;
40465;Laerm;30489;48.982;8.394;2023-03-01T08:40:03;41.18;39.81;42.29;;
40465;Laerm;30489;48.982;8.394;2023-03-01T08:42:17;41.18;39.81;42.29;;
40465;Laerm;30489;48.982;8.394;2023-03-01T08:44:27;41.17;39.81;42.53;;
40465;Laerm;30489;48.982;8.394;2023-03-01T08:46:38;41.22;39.81;42.53;;
40465;Laerm;30489;48.982;8.394;2023-03-01T08:48:48;41.22;39.70;42.47;;
40465;Laerm;30489;48.982;8.394;2023-03-01T08:51:09;41.24;39.70;42.41;;
40465;Laerm;30489;48.982;8.394;2023-03-01T08:53:19;41.27;39.81;42.41;;
40465;Laerm;30489;48.982;8.394;2023-03-01T08:55:29;41.27;39.92;42.76;;
40465;Laerm;30489;48.982;8.394;2023-03-01T08:57:40;41.29;40.03;42.47;;
40465;Laerm;30489;48.982;8.394;2023-03-01T08:59:50;41.31;39.92;42.47;;
40465;Laerm;30489;48.982;8.394;2023-03-01T09:02:00;41.32;40.03;42.53;;
40465;Laerm;30489;48.982;8.394;2023-03-01T09:04:11;41.34;40.13;42.41;;
40465;Laerm;30489;48.982;8.394;2023-03-01T09:06:21;41.37;40.03;42.59;;
40465;Laerm;30489;48.982;8.394;2023-03-01T09:08:33;41.39;40.03;42.65;;
40465;Laerm;30489;48.982;8.394;2023-03-01T09:10:44;41.41;40.03;42.53;;
40465;Laerm;30489;48.982;8.394;2023-03-01T09:12:54;41.39;40.33;42.41;;
40465;Laerm;30489;48.982;8.394;2023-03-01T09:15:04;41.41;39.92;42.47;;
40465;Laerm;30489;48.982;8.394;2023-03-01T09:17:15;41.46;40.27;42.47;;
40465;Laerm;30489;48.982;8.394;2023-03-01T09:19:25;41.49;40.23;42.53;;
40465;Laerm;30489;48.982;8.394;2023-03-01T09:21:35;41.50;39.92;42.71;;
40465;Laerm;30489;48.982;8.394;2023-03-01T09:23:47;41.49;40.03;42.47;;
40465;Laerm;30489;48.982;8.394;2023-03-01T09:25:57;41.51;40.23;42.59;;
40465;Laerm;30489;48.982;8.394;2023-03-01T09:28:08;41.53;40.23;42.71;;
40465;Laerm;30489;48.982;8.394;2023-03-01T09:30:18;41.55;40.43;42.79;;
40465;Laerm;30489;48.982;8.394;2023-03-01T09:32:30;41.56;40.33;42.65;;
40465;Laerm;30489;48.982;8.394;2023-03-01T09:34:40;41.57;40.13;42.59;;
40465;Laerm;30489;48.982;8.394;2023-03-01T09:37:09;41.59;40.33;42.71;;
40465;Laerm;30489;48.982;8.394;2023-03-01T09:39:20;41.59;40.23;42.65;;
40465;Laerm;30489;48.982;8.394;2023-03-01T09:41:44;41.63;40.43;42.82;;
40465;Laerm;30489;48.982;8.394;2023-03-01T09:43:57;41.65;40.43;42.71;;
40465;Laerm;30489;48.982;8.394;2023-03-01T09:46:10;41.65;40.23;42.76;;
40465;Laerm;30489;48.982;8.394;2023-03-01T09:48:22;41.66;40.43;42.71;;
40465;Laerm;30489;48.982;8.394;2023-03-01T09:50:35;41.71;40.43;42.71;;
40465;Laerm;30489;48.982;8.394;2023-03-01T09:52:47;41.73;40.33;42.82;;
40465;Laerm;30489;48.982;8.394;2023-03-01T09:54:58;41.74;40.62;42.82;;
40465;Laerm;30489;48.982;8.394;2023-03-01T10:00:09;41.78;40.62;42.93;;
40465;Laerm;30489;48.982;8.394;2023-03-01T10:04:25;41.81;40.71;42.71;;
40465;Laerm;30489;48.982;8.394;2023-03-01T10:06:37;41.82;40.53;42.82;;
40465;Laerm;30489;48.982;8.394;2023-03-01T10:11:05;41.83;40.71;42.98;;
40465;Laerm;30489;48.982;8.394;2023-03-01T10:13:25;41.83;40.23;42.88;;
40465;Laerm;30489;48.982;8.394;2023-03-01T10:18:30;41.88;40.71;42.98;;
40465;Laerm;30489;48.982;8.394;2023-03-01T10:20:43;41.87;40.43;43.04;;
40465;Laerm;30489;48.982;8.394;2023-03-01T10:22:55;41.89;40.53;42.93;;
40465;Laerm;30489;48.982;8.394;2023-03-01T10:25:08;41.89;40.43;42.88;;
40465;Laerm;30489;48.982;8.394;2023-03-01T10:27:23;41.91;40.71;42.93;;
40465;Laerm;30489;48.982;8.394;2023-03-01T10:29:37;41.93;40.71;43.05;;
40465;Laerm;30489;48.982;8.394;2023-03-01T10:31:50;41.97;40.71;43.09;;
40465;Laerm;30489;48.982;8.394;2023-03-01T10:34:01;41.99;40.80;42.93;;
40465;Laerm;30489;48.982;8.394;2023-03-01T10:36:11;41.98;40.71;43.04;;
40465;Laerm;30489;48.982;8.394;2023-03-01T10:38:21;41.98;40.71;43.00;;
40465;Laerm;30489;48.982;8.394;2023-03-01T10:40:33;42.00;40.71;43.19;;
40465;Laerm;30489;48.982;8.394;2023-03-01T10:42:47;42.03;40.71;43.14;;
40465;Laerm;30489;48.982;8.394;2023-03-01T10:47:26;42.04;40.62;43.34;;
40465;Laerm;30489;48.982;8.394;2023-03-01T10:49:36;42.05;40.62;43.14;;
40465;Laerm;30489;48.982;8.394;2023-03-01T10:51:48;42.07;40.80;43.09;;
40465;Laerm;30489;48.982;8.394;2023-03-01T10:53:58;42.10;40.71;43.19;;
40465;Laerm;30489;48.982;8.394;2023-03-01T10:56:10;42.07;40.71;43.39;;
40465;Laerm;30489;48.982;8.394;2023-03-01T10:58:21;42.06;40.80;43.24;;
40465;Laerm;30489;48.982;8.394;2023-03-01T11:00:32;42.12;40.80;43.24;;
40465;Laerm;30489;48.982;8.394;2023-03-01T11:02:43;42.14;40.98;43.39;;
40465;Laerm;30489;48.982;8.394;2023-03-01T11:05:00;42.15;40.89;43.34;;
40465;Laerm;30489;48.982;8.394;2023-03-01T11:07:11;42.16;40.98;43.54;;
40465;Laerm;30489;48.982;8.394;2023-03-01T11:09:22;42.16;40.98;43.19;;
40465;Laerm;30489;48.982;8.394;2023-03-01T11:11:33;42.17;40.89;43.04;;
40465;Laerm;30489;48.982;8.394;2023-03-01T11:16:13;42.17;40.98;43.24;;
40465;Laerm;30489;48.982;8.394;2023-03-01T11:18:23;42.18;40.89;43.24;;
40465;Laerm;30489;48.982;8.394;2023-03-01T11:20:35;42.19;40.98;43.39;;
40465;Laerm;30489;48.982;8.394;2023-03-01T11:24:55;42.19;40.89;43.19;;
40465;Laerm;30489;48.982;8.394;2023-03-01T11:27:23;42.21;40.96;43.39;;
40465;Laerm;30489;48.982;8.394;2023-03-01T11:29:44;42.21;41.14;43.29;;
40465;Laerm;30489;48.982;8.394;2023-03-01T11:31:57;42.23;41.06;43.34;;
40465;Laerm;30489;48.982;8.394;2023-03-01T11:34:11;42.24;40.98;43.29;;
40465;Laerm;30489;48.982;8.394;2023-03-01T11:36:31;42.26;40.98;43.90;;
40465;Laerm;30489;48.982;8.394;2023-03-01T11:38:42;42.25;41.06;43.39;;
40465;Laerm;30489;48.982;8.394;2023-03-01T11:43:12;42.25;41.22;43.34;;
40465;Laerm;30489;48.982;8.394;2023-03-01T11:45:25;42.27;41.06;43.24;;
40465;Laerm;30489;48.982;8.394;2023-03-01T11:54:20;42.28;41.14;43.19;;
40465;Laerm;30489;48.982;8.394;2023-03-01T11:56:46;42.28;40.79;43.49;;
40465;Laerm;30489;48.982;8.394;2023-03-01T12:01:19;42.28;41.22;43.24;;
40465;Laerm;30489;48.982;8.394;2023-03-01T12:10:34;42.30;40.98;43.44;;
40465;Laerm;30489;48.982;8.394;2023-03-01T12:12:58;42.31;40.98;43.34;;
40465;Laerm;30489;48.982;8.394;2023-03-01T12:15:28;42.31;40.98;43.86;;
40465;Laerm;30489;48.982;8.394;2023-03-01T12:18:00;42.33;41.14;43.42;;
40465;Laerm;30489;48.982;8.394;2023-03-01T12:22:35;42.34;41.22;44.15;;
40465;Laerm;30489;48.982;8.394;2023-03-01T12:29:37;42.33;40.98;43.34;;
40465;Laerm;30489;48.982;8.394;2023-03-01T12:32:06;42.33;40.89;43.58;;
40465;Laerm;30489;48.982;8.394;2023-03-01T12:36:40;42.33;41.06;43.44;;
40465;Laerm;30489;48.982;8.394;2023-03-01T12:51:03;42.32;41.14;43.34;;
40465;Laerm;30489;48.982;8.394;2023-03-01T12:53:26;42.32;41.14;43.29;;
40465;Laerm;30489;48.982;8.394;2023-03-01T12:55:41;42.33;41.22;43.39;;
40465;Laerm;30489;48.982;8.394;2023-03-01T13:04:54;42.32;41.14;43.39;;
40465;Laerm;30489;48.982;8.394;2023-03-01T13:11:43;42.32;40.98;43.44;;
40465;Laerm;30489;48.982;8.394;2023-03-01T13:14:18;42.32;41.06;43.34;;
40465;Laerm;30489;48.982;8.394;2023-03-01T13:18:40;42.31;40.80;43.34;;
40465;Laerm;30489;48.982;8.394;2023-03-01T13:20:50;42.32;40.89;43.58;;
40465;Laerm;30489;48.982;8.394;2023-03-01T13:25:20;42.31;41.22;43.34;;
40465;Laerm;30489;48.982;8.394;2023-03-01T13:27:31;42.31;40.80;43.49;;
40465;Laerm;30489;48.982;8.394;2023-03-01T13:29:46;42.31;41.06;43.49;;
40465;Laerm;30489;48.982;8.394;2023-03-01T13:31:56;42.30;41.06;43.86;;
40465;Laerm;30489;48.982;8.394;2023-03-01T13:34:09;42.28;41.06;43.39;;
40465;Laerm;30489;48.982;8.394;2023-03-01T13:38:48;42.28;40.89;43.34;;
40465;Laerm;30489;48.982;8.394;2023-03-01T13:41:07;42.31;41.06;48.42;;
40465;Laerm;30489;48.982;8.394;2023-03-01T13:46:02;42.28;40.43;43.44;;
40465;Laerm;30489;48.982;8.394;2023-03-01T13:48:20;42.28;40.98;43.39;;
40465;Laerm;30489;48.982;8.394;2023-03-01T13:50:33;42.30;40.88;45.14;;
40465;Laerm;30489;48.982;8.394;2023-03-01T13:52:48;42.28;40.89;43.68;;
40465;Laerm;30489;48.982;8.394;2023-03-01T13:55:00;42.28;40.89;43.44;;
40465;Laerm;30489;48.982;8.394;2023-03-01T13:57:18;42.29;40.80;43.54;;
40465;Laerm;30489;48.982;8.394;2023-03-01T13:59:31;42.27;40.98;43.54;;
40465;Laerm;30489;48.982;8.394;2023-03-01T14:01:41;42.25;41.06;43.54;;
40465;Laerm;30489;48.982;8.394;2023-03-01T14:03:52;42.26;40.53;43.44;;
40465;Laerm;30489;48.982;8.394;2023-03-01T14:06:04;42.26;41.03;43.24;;
40465;Laerm;30489;48.982;8.394;2023-03-01T14:08:19;42.25;40.80;43.44;;